Terminal Aerodrome Forecast
Issued by NWS

Home | Current Version | Previous Version | Graphics & Text | Print | Product List | Glossary Off
Versions: 1 2 3 4 5 6 7 8 9 10 11 12 13 14 15 16 17 18 19 20 21 22 23 24

000
FTUS43 KDDC 251741
TAFHYS
TAF
KHYS 251741Z 2518/2618 07008KT P6SM -SHRA BKN070
     FM251900 06008KT P6SM VCSH BKN060
     FM252300 09008KT P6SM VCSH BKN070
     FM260000 09008KT P6SM BKN070=

USA.gov is the U.S. government's official web portal to all federal, state and local government web resources and services.